This is the latest recevied weather packets stored in our database for station/object W1NHD. If no packets are shown the sender has not sent any weather packets the latest 10 day(s).
| Time | Temp. | Humidity | Pressure | Rain* | Wind** | Luminosity | Snow |
|---|---|---|---|---|---|---|---|
| 1777867516 | 7.22° C | 61% | 1009.7 hPa | 0 mm | - | - | - |
| 1777864537 | 6.67° C | 65% | 1009.5 hPa | 0 mm | - | - | - |
| 1777860317 | 7.22° C | 61% | 1009.2 hPa | 0 mm | - | - | - |
| 1777853717 | 10° C | 52% | 1008 hPa | 0 mm | - | - | - |
| 1777843517 | 11.67° C | 50% | 1005.4 hPa | 0 mm | - | - | - |
| 1777841717 | 12.78° C | 48% | 1005 hPa | 0 mm | - | - | - |
| 1777837516 | 12.22° C | 54% | 1004.9 hPa | 0 mm | - | - | - |
| 1777833937 | 10° C | 64% | 1005.2 hPa | 0 mm | - | - | - |
| 1777828837 | 8.33° C | 79% | 1005.3 hPa | 0 mm | - | - | - |
| 1777828238 | 8.33° C | 79% | 1005.3 hPa | 0 mm | - | - | - |
| 1777827017 | 7.78° C | 81% | 1005.1 hPa | 0 mm | - | - | - |
| 1777823416 | 7.22° C | 90% | 1005 hPa | 0.51 mm | - | - | - |
| 1777821016 | 7.78° C | 85% | 1005 hPa | 0 mm | - | - | - |
| 1777820416 | 7.78° C | 84% | 1005.1 hPa | 0 mm | - | - | - |
| 1777819216 | 7.78° C | 86% | 1004.9 hPa | 0 mm | - | - | - |
| 1777818616 | 7.78° C | 86% | 1004.9 hPa | 0 mm | - | - | - |
| 1777817416 | 8.33° C | 85% | 1004.8 hPa | 0 mm | - | - | - |
| 1777816216 | 7.78° C | 86% | 1004.9 hPa | 0 mm | - | - | - |
| 1777813818 | 8.33° C | 89% | 1005.2 hPa | 0 mm | - | - | - |
| 1777812618 | 7.22° C | 90% | 1005.6 hPa | 0 mm | - | - | - |
| 1777812019 | 7.22° C | 91% | 1005.6 hPa | 0 mm | - | - | - |
| 1777811417 | 7.22° C | 91% | 1005.6 hPa | 0 mm | - | - | - |
| 1777810219 | 6.67° C | 91% | 1005.8 hPa | 0 mm | - | - | - |
| 1777809618 | 6.67° C | 91% | 1006 hPa | 0 mm | - | - | - |
| 1777807217 | 6.67° C | 91% | 1006.2 hPa | 0 mm | - | - | - |
* Rain latest hour (hover to see other rain measurements)
** Current wind speed in m/s (hover to see current wind gust speed)